createdAt,value
2019-03-05T00:00:08.411Z,7.56
2019-03-05T00:00:48.997Z,7.56
2019-03-05T00:01:29.577Z,7.51
2019-03-05T00:02:10.135Z,7.6
2019-03-05T00:02:50.705Z,7.51
2019-03-05T00:03:31.270Z,7.66
2019-03-05T00:04:11.842Z,7.51
2019-03-05T00:04:52.389Z,7.48
2019-03-05T00:05:32.977Z,7.48
2019-03-05T00:06:13.555Z,7.5
2019-03-05T00:06:54.145Z,7.5
2019-03-05T00:07:34.697Z,7.5
2019-03-05T00:08:15.327Z,7.53
2019-03-05T00:08:55.883Z,7.48
2019-03-05T00:09:36.437Z,7.5
2019-03-05T00:10:16.998Z,7.48
2019-03-05T00:10:57.602Z,7.56
2019-03-05T00:11:38.206Z,7.56
2019-03-05T00:12:18.772Z,7.58
2019-03-05T00:12:59.362Z,7.61
2019-03-05T00:13:39.913Z,7.57
2019-03-05T00:14:20.472Z,7.54
2019-03-05T00:15:01.052Z,7.61
2019-03-05T00:15:41.609Z,7.54
2019-03-05T00:16:22.181Z,7.61
2019-03-05T00:17:02.794Z,7.66
2019-03-05T00:17:43.336Z,7.69
2019-03-05T00:18:23.918Z,7.66
2019-03-05T00:19:04.488Z,7.57
2019-03-05T00:19:45.054Z,7.58
2019-03-05T00:20:25.637Z,7.63
2019-03-05T00:21:06.221Z,7.66
2019-03-05T00:21:46.767Z,7.56
2019-03-05T00:22:27.351Z,7.56
2019-03-05T00:23:08.387Z,7.6
2019-03-05T00:23:48.492Z,7.57
2019-03-05T00:24:29.037Z,7.6
2019-03-05T00:25:09.608Z,7.61
2019-03-05T00:25:50.159Z,7.63
2019-03-05T00:26:30.720Z,7.63
2019-03-05T00:27:11.303Z,7.61
2019-03-05T00:27:51.879Z,7.63
2019-03-05T00:28:32.449Z,7.66
2019-03-05T00:29:13.037Z,7.66
2019-03-05T00:29:53.658Z,7.67
2019-03-05T00:30:34.211Z,7.6
2019-03-05T00:31:14.780Z,7.61
2019-03-05T00:31:55.334Z,7.69
2019-03-05T00:32:35.926Z,7.66
2019-03-05T00:33:16.486Z,7.69
2019-03-05T00:33:57.048Z,7.61
2019-03-05T00:34:37.614Z,7.63
2019-03-05T00:35:18.175Z,7.73
2019-03-05T00:35:58.725Z,7.7
2019-03-05T00:36:39.282Z,7.66
2019-03-05T00:37:19.852Z,7.73
2019-03-05T00:38:00.409Z,7.8
2019-03-05T00:38:40.985Z,7.73
2019-03-05T00:39:21.563Z,7.69
2019-03-05T00:40:02.119Z,7.75
2019-03-05T00:40:42.693Z,7.76
2019-03-05T00:41:23.255Z,7.73
2019-03-05T00:42:03.820Z,7.75
2019-03-05T00:42:44.367Z,7.77
2019-03-05T00:43:24.921Z,7.75
2019-03-05T00:44:05.484Z,7.82
2019-03-05T00:44:46.075Z,7.72
2019-03-05T00:45:26.636Z,7.77
2019-03-05T00:46:07.244Z,7.79
2019-03-05T00:46:47.765Z,7.75
2019-03-05T00:47:28.342Z,7.77
2019-03-05T00:48:11.295Z,7.75
2019-03-05T00:48:49.484Z,7.77
2019-03-05T00:49:30.061Z,7.72
2019-03-05T00:50:10.670Z,7.73
2019-03-05T00:50:51.223Z,7.77
2019-03-05T00:51:31.801Z,7.82
2019-03-05T00:52:12.362Z,7.9
2019-03-05T00:52:52.909Z,7.85
2019-03-05T00:53:33.476Z,7.79
2019-03-05T00:54:14.050Z,7.79
2019-03-05T00:54:54.617Z,7.91
2019-03-05T00:55:35.186Z,7.75
2019-03-05T00:56:15.823Z,7.79
2019-03-05T00:56:56.512Z,7.82
2019-03-05T00:57:37.081Z,7.77
2019-03-05T00:58:17.656Z,7.88
2019-03-05T00:58:58.211Z,7.75
2019-03-05T00:59:38.782Z,7.77
2019-03-05T01:00:19.361Z,7.87
2019-03-05T01:00:59.942Z,7.9
2019-03-05T01:01:40.496Z,7.77
2019-03-05T01:02:21.071Z,7.87
2019-03-05T01:03:01.643Z,7.87
2019-03-05T01:03:42.225Z,7.85
2019-03-05T01:04:22.789Z,7.87
2019-03-05T01:05:03.353Z,7.9
2019-03-05T01:05:43.925Z,7.93
2019-03-05T01:06:24.557Z,7.9
2019-03-05T01:07:05.055Z,7.9
2019-03-05T01:07:45.613Z,7.91
2019-03-05T01:08:26.155Z,7.91
2019-03-05T01:09:06.708Z,7.87
2019-03-05T01:09:47.280Z,7.91
2019-03-05T01:10:27.850Z,7.94
2019-03-05T01:11:08.435Z,7.87
2019-03-05T01:11:49.033Z,7.93
2019-03-05T01:12:29.610Z,7.82
2019-03-05T01:13:10.177Z,7.91
2019-03-05T01:13:50.736Z,7.87
2019-03-05T01:14:31.300Z,7.88
2019-03-05T01:15:11.866Z,7.91
2019-03-05T01:15:52.420Z,7.88
2019-03-05T01:16:33.039Z,7.83
2019-03-05T01:17:13.607Z,7.9
2019-03-05T01:17:55.037Z,7.88
2019-03-05T01:18:35.620Z,7.85
2019-03-05T01:19:16.197Z,7.8
2019-03-05T01:19:56.749Z,7.97
2019-03-05T01:20:37.302Z,7.88
2019-03-05T01:21:17.872Z,7.82
2019-03-05T01:21:58.502Z,7.93
2019-03-05T01:22:39.072Z,7.9
2019-03-05T01:23:19.644Z,7.9
2019-03-05T01:24:00.207Z,7.91
2019-03-05T01:24:40.768Z,7.87
2019-03-05T01:25:21.368Z,7.85
2019-03-05T01:26:01.923Z,7.91
2019-03-05T01:26:42.468Z,7.95
2019-03-05T01:27:23.057Z,7.91
2019-03-05T01:28:03.658Z,7.91
2019-03-05T01:28:44.225Z,7.87
2019-03-05T01:29:24.769Z,7.82
2019-03-05T01:30:05.332Z,7.77
2019-03-05T01:30:45.868Z,7.76
2019-03-05T01:31:26.425Z,7.85
2019-03-05T01:32:06.955Z,7.77
2019-03-05T01:32:47.518Z,7.83
2019-03-05T01:33:28.094Z,7.77
2019-03-05T01:34:08.645Z,7.75
2019-03-05T01:34:49.229Z,7.9
2019-03-05T01:35:29.790Z,7.83
2019-03-05T01:36:10.388Z,7.83
2019-03-05T01:36:50.927Z,7.83
2019-03-05T01:37:31.493Z,7.75
2019-03-05T01:38:12.128Z,7.88
2019-03-05T01:38:52.672Z,7.77
2019-03-05T01:39:33.228Z,7.75
2019-03-05T01:40:13.787Z,7.79
2019-03-05T01:40:54.344Z,7.77
2019-03-05T01:41:34.915Z,7.72
2019-03-05T01:42:15.502Z,7.75
2019-03-05T01:42:56.063Z,7.75
2019-03-05T01:43:36.685Z,7.8
2019-03-05T01:44:17.198Z,7.7
2019-03-05T01:44:57.791Z,7.73
2019-03-05T01:45:38.351Z,7.72
2019-03-05T01:46:18.913Z,7.8
2019-03-05T01:46:59.471Z,7.72
2019-03-05T01:47:40.039Z,7.63
2019-03-05T01:48:20.588Z,7.7
2019-03-05T01:49:01.152Z,7.69
2019-03-05T01:49:41.713Z,7.67
2019-03-05T01:50:22.289Z,7.66
2019-03-05T01:51:02.842Z,7.58
2019-03-05T01:51:43.390Z,7.69
2019-03-05T01:52:23.956Z,7.69
2019-03-05T01:53:04.529Z,7.69
2019-03-05T01:53:45.097Z,7.61
2019-03-05T01:54:25.673Z,7.61
2019-03-05T01:55:06.231Z,7.7
2019-03-05T01:55:46.794Z,7.69
2019-03-05T01:56:27.382Z,7.58
2019-03-05T01:57:07.949Z,7.61
2019-03-05T01:57:48.512Z,7.66
2019-03-05T01:58:29.092Z,7.66
2019-03-05T01:59:09.737Z,7.61
2019-03-05T01:59:50.281Z,7.58
2019-03-05T02:00:30.856Z,7.57
2019-03-05T02:01:11.414Z,7.61
2019-03-05T02:01:52.014Z,7.54
2019-03-05T02:02:32.559Z,7.56
2019-03-05T02:03:13.131Z,7.48
2019-03-05T02:03:53.709Z,7.56
2019-03-05T02:04:34.278Z,7.58
2019-03-05T02:05:15.281Z,7.51
2019-03-05T02:05:55.837Z,7.54
2019-03-05T02:06:36.418Z,7.5
2019-03-05T02:07:17.032Z,7.66
2019-03-05T02:07:57.602Z,7.57
2019-03-05T02:08:38.139Z,7.54
2019-03-05T02:09:18.705Z,7.54
2019-03-05T02:09:59.292Z,7.54
2019-03-05T02:10:39.863Z,7.47
2019-03-05T02:11:20.438Z,7.43
2019-03-05T02:12:00.986Z,7.47
2019-03-05T02:12:41.550Z,7.4
2019-03-05T02:13:22.137Z,7.42
2019-03-05T02:14:02.705Z,7.36
2019-03-05T02:14:43.274Z,7.35
2019-03-05T02:15:23.828Z,7.32
2019-03-05T02:16:04.391Z,7.35
2019-03-05T02:16:44.948Z,7.28
2019-03-05T02:17:25.505Z,7.32
2019-03-05T02:18:06.050Z,7.31
2019-03-05T02:18:46.636Z,7.25
2019-03-05T02:19:27.193Z,7.29
2019-03-05T02:20:07.763Z,7.33
2019-03-05T02:20:48.330Z,7.21
2019-03-05T02:21:28.911Z,7.21
2019-03-05T02:22:09.509Z,7.15
2019-03-05T02:22:50.078Z,7.29
2019-03-05T02:23:30.672Z,7.21
2019-03-05T02:24:11.215Z,7.23
2019-03-05T02:24:51.775Z,7.24
2019-03-05T02:25:32.353Z,7.2
2019-03-05T02:26:12.960Z,7.18
2019-03-05T02:26:53.554Z,7.23
2019-03-05T02:27:34.113Z,7.21
2019-03-05T02:28:14.681Z,7.21
2019-03-05T02:28:55.279Z,7.18
2019-03-05T02:29:35.869Z,7.17
2019-03-05T02:30:16.406Z,7.17
2019-03-05T02:30:56.970Z,7.02
2019-03-05T02:31:37.533Z,7.07
2019-03-05T02:32:18.101Z,7.03
2019-03-05T02:32:58.649Z,7.06
2019-03-05T02:33:39.224Z,7.06
2019-03-05T02:34:19.798Z,7.07
2019-03-05T02:35:00.585Z,7.07
2019-03-05T02:35:40.934Z,7.07
2019-03-05T02:36:21.499Z,7.05
2019-03-05T02:37:02.065Z,7.06
2019-03-05T02:37:42.633Z,7
2019-03-05T02:38:23.206Z,6.95
2019-03-05T02:39:03.774Z,7
2019-03-05T02:39:44.359Z,6.93
2019-03-05T02:40:24.931Z,7.02
2019-03-05T02:41:05.507Z,7
2019-03-05T02:41:46.044Z,6.99
2019-03-05T02:42:26.616Z,6.97
2019-03-05T02:43:07.267Z,6.96
2019-03-05T02:43:47.758Z,6.95
2019-03-05T02:44:28.326Z,6.96
2019-03-05T02:45:08.913Z,6.87
2019-03-05T02:45:49.520Z,6.95
2019-03-05T02:46:30.040Z,6.96
2019-03-05T02:47:10.616Z,6.89
2019-03-05T02:47:51.203Z,6.89
2019-03-05T02:48:31.770Z,6.92
2019-03-05T02:49:12.407Z,6.81
2019-03-05T02:49:52.958Z,6.85
2019-03-05T02:50:33.559Z,6.87
2019-03-05T02:51:14.167Z,6.93
2019-03-05T02:51:54.738Z,6.87
2019-03-05T02:52:35.337Z,6.87
2019-03-05T02:53:15.939Z,6.88
2019-03-05T02:53:56.517Z,6.85
2019-03-05T02:54:37.095Z,6.92
2019-03-05T02:55:17.677Z,6.89
2019-03-05T02:55:58.256Z,6.87
2019-03-05T02:56:38.848Z,6.89
2019-03-05T02:57:19.423Z,6.85
2019-03-05T02:58:00.039Z,6.85
2019-03-05T02:58:40.600Z,6.87
2019-03-05T02:59:21.144Z,6.92
2019-03-05T03:00:01.746Z,6.89
2019-03-05T03:00:42.303Z,6.95
2019-03-05T03:01:22.867Z,6.78
2019-03-05T03:02:03.454Z,6.78
2019-03-05T03:02:44.044Z,6.82
2019-03-05T03:03:24.599Z,6.81
2019-03-05T03:04:05.210Z,6.79
2019-03-05T03:04:45.685Z,6.79
2019-03-05T03:05:26.397Z,6.79
2019-03-05T03:06:06.990Z,6.66
2019-03-05T03:06:47.537Z,6.72
2019-03-05T03:07:28.085Z,6.78
2019-03-05T03:08:08.629Z,6.78
2019-03-05T03:08:49.191Z,6.74
2019-03-05T03:09:29.769Z,6.75
2019-03-05T03:10:10.346Z,6.85
2019-03-05T03:10:50.925Z,6.74
2019-03-05T03:11:31.515Z,6.79
2019-03-05T03:12:12.065Z,6.72
2019-03-05T03:12:52.625Z,6.77
2019-03-05T03:13:33.220Z,6.78
2019-03-05T03:14:13.828Z,6.82
2019-03-05T03:14:54.382Z,6.82
2019-03-05T03:15:34.976Z,6.88
2019-03-05T03:16:15.545Z,6.82
2019-03-05T03:16:56.120Z,6.84
2019-03-05T03:17:36.710Z,6.89
2019-03-05T03:18:17.304Z,6.88
2019-03-05T03:18:57.922Z,6.85
2019-03-05T03:19:38.488Z,6.85
2019-03-05T03:20:19.067Z,6.89
2019-03-05T03:20:59.643Z,6.82
2019-03-05T03:21:40.226Z,6.84
2019-03-05T03:22:20.836Z,6.88
2019-03-05T03:23:01.390Z,6.88
2019-03-05T03:23:41.963Z,6.81
2019-03-05T03:24:22.582Z,6.87
2019-03-05T03:25:03.145Z,6.95
2019-03-05T03:25:43.707Z,6.88
2019-03-05T03:26:24.242Z,6.88
2019-03-05T03:27:04.830Z,6.92
2019-03-05T03:27:45.412Z,6.88
2019-03-05T03:28:26.003Z,6.87
2019-03-05T03:29:06.543Z,6.95
2019-03-05T03:29:47.104Z,6.87
2019-03-05T03:30:27.678Z,6.87
2019-03-05T03:31:08.230Z,6.92
2019-03-05T03:31:48.838Z,6.97
2019-03-05T03:32:29.368Z,6.95
2019-03-05T03:33:09.945Z,6.93
2019-03-05T03:33:50.526Z,7
2019-03-05T03:34:31.082Z,6.99
2019-03-05T03:35:11.619Z,6.96
2019-03-05T03:35:52.208Z,7
2019-03-05T03:36:32.751Z,6.99
2019-03-05T03:37:13.328Z,6.97
2019-03-05T03:37:53.884Z,7.05
2019-03-05T03:38:34.495Z,7.11
2019-03-05T03:39:15.056Z,7.1
2019-03-05T03:39:55.650Z,7.03
2019-03-05T03:40:36.199Z,7
2019-03-05T03:41:16.769Z,7.03
2019-03-05T03:41:57.355Z,7.1
2019-03-05T03:42:37.925Z,7.05
2019-03-05T03:43:18.510Z,7.02
2019-03-05T03:43:59.066Z,7.11
2019-03-05T03:44:39.607Z,7.11
2019-03-05T03:45:20.237Z,7.14
2019-03-05T03:46:00.790Z,7.17
2019-03-05T03:46:41.349Z,7.13
2019-03-05T03:47:21.949Z,7.15
2019-03-05T03:48:02.517Z,7.18
2019-03-05T03:48:43.092Z,7.24
2019-03-05T03:49:23.670Z,7.15
2019-03-05T03:50:04.245Z,7.23
2019-03-05T03:50:44.816Z,7.17
2019-03-05T03:51:25.418Z,7.18
2019-03-05T03:52:06.010Z,7.2
2019-03-05T03:52:46.619Z,7.15
2019-03-05T03:53:27.214Z,7.36
2019-03-05T03:54:07.843Z,7.35
2019-03-05T03:54:48.392Z,7.29
2019-03-05T03:55:28.963Z,7.33
2019-03-05T03:56:09.538Z,7.29
2019-03-05T03:56:50.125Z,7.29
2019-03-05T03:57:30.687Z,7.21
2019-03-05T03:58:11.253Z,7.29
2019-03-05T03:58:51.801Z,7.32
2019-03-05T03:59:32.382Z,7.32
2019-03-05T04:00:12.934Z,7.33
2019-03-05T04:00:53.540Z,7.32
2019-03-05T04:01:34.090Z,7.36
2019-03-05T04:02:14.656Z,7.35
2019-03-05T04:02:55.215Z,7.36
2019-03-05T04:03:35.787Z,7.32
2019-03-05T04:04:16.345Z,7.4
2019-03-05T04:04:56.902Z,7.42
2019-03-05T04:05:37.462Z,7.4
2019-03-05T04:06:18.003Z,7.45
2019-03-05T04:06:58.582Z,7.43
2019-03-05T04:07:39.150Z,7.43
2019-03-05T04:08:19.738Z,7.38
2019-03-05T04:09:00.300Z,7.43
2019-03-05T04:09:40.866Z,7.4
2019-03-05T04:10:21.429Z,7.42
2019-03-05T04:11:01.976Z,7.39
2019-03-05T04:11:42.549Z,7.43
2019-03-05T04:12:23.179Z,7.43
2019-03-05T04:13:03.749Z,7.39
2019-03-05T04:13:44.330Z,7.43
2019-03-05T04:14:24.899Z,7.4
2019-03-05T04:15:05.442Z,7.5
2019-03-05T04:15:46.012Z,7.45
2019-03-05T04:16:26.589Z,7.48
2019-03-05T04:17:07.170Z,7.51
2019-03-05T04:17:47.726Z,7.51
2019-03-05T04:18:28.304Z,7.56
2019-03-05T04:19:08.869Z,7.56
2019-03-05T04:19:49.442Z,7.54
2019-03-05T04:20:30.012Z,7.53
2019-03-05T04:21:10.577Z,7.56
2019-03-05T04:21:51.160Z,7.61
2019-03-05T04:22:31.690Z,7.51
2019-03-05T04:23:12.329Z,7.56
2019-03-05T04:23:52.798Z,7.66
2019-03-05T04:24:33.407Z,7.63
2019-03-05T04:25:13.978Z,7.67
2019-03-05T04:25:54.564Z,7.6
2019-03-05T04:26:35.117Z,7.66
2019-03-05T04:27:15.695Z,7.58
2019-03-05T04:27:56.278Z,7.58
2019-03-05T04:28:36.871Z,7.58
2019-03-05T04:29:17.448Z,7.58
2019-03-05T04:29:58.045Z,7.61
2019-03-05T04:30:38.586Z,7.6
2019-03-05T04:31:19.142Z,7.6
2019-03-05T04:31:59.695Z,7.63
2019-03-05T04:32:40.259Z,7.61
2019-03-05T04:33:20.828Z,7.56
2019-03-05T04:34:01.427Z,7.66
2019-03-05T04:34:42.005Z,7.63
2019-03-05T04:35:22.564Z,7.67
2019-03-05T04:36:03.184Z,7.53
2019-03-05T04:36:43.743Z,7.57
2019-03-05T04:37:24.313Z,7.5
2019-03-05T04:38:04.863Z,7.56
2019-03-05T04:38:45.440Z,7.56
2019-03-05T04:39:25.986Z,7.54
2019-03-05T04:40:06.566Z,7.61
2019-03-05T04:40:47.145Z,7.51
2019-03-05T04:41:27.710Z,7.54
2019-03-05T04:42:08.267Z,7.5
2019-03-05T04:42:48.824Z,7.53
2019-03-05T04:43:29.414Z,7.53
2019-03-05T04:44:09.979Z,7.56
2019-03-05T04:44:50.559Z,7.56
2019-03-05T04:45:31.124Z,7.54
2019-03-05T04:46:11.703Z,7.56
2019-03-05T04:46:52.266Z,7.56
2019-03-05T04:47:32.830Z,7.54
2019-03-05T04:48:13.379Z,7.47
2019-03-05T04:48:53.942Z,7.54
2019-03-05T04:49:34.514Z,7.48
2019-03-05T04:50:15.090Z,7.57
2019-03-05T04:50:55.643Z,7.56
2019-03-05T04:51:36.204Z,7.56
2019-03-05T04:52:16.763Z,7.48
2019-03-05T04:52:57.351Z,7.51
2019-03-05T04:53:37.909Z,7.5
2019-03-05T04:54:18.474Z,7.6
2019-03-05T04:54:59.028Z,7.53
2019-03-05T04:55:39.656Z,7.51
2019-03-05T04:56:20.250Z,7.53
2019-03-05T04:57:00.800Z,7.54
2019-03-05T04:57:41.370Z,7.48
2019-03-05T04:58:21.942Z,7.5
2019-03-05T04:59:02.510Z,7.5
2019-03-05T04:59:43.084Z,7.47
2019-03-05T05:00:23.629Z,7.54
2019-03-05T05:01:04.203Z,7.54
2019-03-05T05:01:44.785Z,7.54
2019-03-05T05:02:25.335Z,7.58
2019-03-05T05:03:05.906Z,7.58
2019-03-05T05:03:46.493Z,7.54
2019-03-05T05:04:27.055Z,7.56
2019-03-05T05:05:07.614Z,7.54
2019-03-05T05:05:48.197Z,7.5
2019-03-05T05:06:28.823Z,7.53
2019-03-05T05:07:09.432Z,7.45
2019-03-05T05:07:49.988Z,7.53
2019-03-05T05:08:30.544Z,7.51
2019-03-05T05:09:11.110Z,7.53
2019-03-05T05:09:51.665Z,7.48
2019-03-05T05:10:32.269Z,7.5
2019-03-05T05:11:12.865Z,7.48
2019-03-05T05:11:53.429Z,7.48
2019-03-05T05:12:34.035Z,7.43
2019-03-05T05:13:14.598Z,7.39
2019-03-05T05:13:55.177Z,7.47
2019-03-05T05:14:35.746Z,7.4
2019-03-05T05:15:16.344Z,7.45
2019-03-05T05:15:56.915Z,7.47
2019-03-05T05:16:37.465Z,7.43
2019-03-05T05:17:18.048Z,7.43
2019-03-05T05:17:58.665Z,7.43
2019-03-05T05:18:39.222Z,7.42
2019-03-05T05:19:19.785Z,7.47
2019-03-05T05:20:00.364Z,7.5
2019-03-05T05:20:40.880Z,7.42
2019-03-05T05:21:21.452Z,7.43
2019-03-05T05:22:02.072Z,7.39
2019-03-05T05:22:42.614Z,7.39
2019-03-05T05:23:23.173Z,7.39
2019-03-05T05:24:03.728Z,7.43
2019-03-05T05:24:44.291Z,7.43
2019-03-05T05:25:24.901Z,7.45
2019-03-05T05:26:05.471Z,7.47
2019-03-05T05:26:46.026Z,7.39
2019-03-05T05:27:26.594Z,7.38
2019-03-05T05:28:07.151Z,7.33
2019-03-05T05:28:47.729Z,7.33
2019-03-05T05:29:28.313Z,7.43
2019-03-05T05:30:08.885Z,7.42
2019-03-05T05:30:49.442Z,7.42
2019-03-05T05:31:30.005Z,7.47
2019-03-05T05:32:10.570Z,7.4
2019-03-05T05:32:51.133Z,7.43
2019-03-05T05:33:31.684Z,7.42
2019-03-05T05:34:12.250Z,7.45
2019-03-05T05:34:52.811Z,7.39
2019-03-05T05:35:33.380Z,7.43
2019-03-05T05:36:13.979Z,7.51
2019-03-05T05:36:54.592Z,7.45
2019-03-05T05:37:35.254Z,7.39
2019-03-05T05:38:15.801Z,7.43
2019-03-05T05:38:56.363Z,7.42
2019-03-05T05:39:36.930Z,7.4
2019-03-05T05:40:17.489Z,7.43
2019-03-05T05:40:58.037Z,7.45
2019-03-05T05:41:38.618Z,7.5
2019-03-05T05:42:19.206Z,7.45
2019-03-05T05:42:59.758Z,7.39
2019-03-05T05:43:41.161Z,7.47
2019-03-05T05:44:21.744Z,7.4
2019-03-05T05:45:02.324Z,7.47
2019-03-05T05:45:42.890Z,7.48
2019-03-05T05:46:23.594Z,7.42
2019-03-05T05:47:04.863Z,7.4
2019-03-05T05:47:45.985Z,7.39
2019-03-05T05:48:27.294Z,7.45
2019-03-05T05:49:08.236Z,7.47
2019-03-05T05:49:49.252Z,7.42
2019-03-05T05:50:30.072Z,7.42
2019-03-05T05:51:10.706Z,7.39
2019-03-05T05:51:51.422Z,7.42
2019-03-05T05:52:32.033Z,7.5
2019-03-05T05:53:12.973Z,7.45
2019-03-05T05:53:53.553Z,7.38
2019-03-05T05:54:34.127Z,7.38
2019-03-05T05:55:15.181Z,7.4
2019-03-05T05:55:55.932Z,7.47
2019-03-05T05:56:36.562Z,7.43
2019-03-05T05:57:17.249Z,7.47
2019-03-05T05:57:57.810Z,7.43
2019-03-05T05:58:38.633Z,7.47
2019-03-05T05:59:19.744Z,7.38
2019-03-05T06:00:00.453Z,7.47
2019-03-05T06:00:41.282Z,7.4
2019-03-05T06:01:21.818Z,7.4
2019-03-05T06:02:02.414Z,7.4
2019-03-05T06:02:43.004Z,7.48
2019-03-05T06:03:23.613Z,7.38
2019-03-05T06:04:04.173Z,7.4
2019-03-05T06:04:44.817Z,7.42
2019-03-05T06:05:25.411Z,7.45
2019-03-05T06:06:05.976Z,7.47
2019-03-05T06:06:46.630Z,7.48
2019-03-05T06:07:27.424Z,7.39
2019-03-05T06:08:08.062Z,7.48
2019-03-05T06:08:48.593Z,7.4
2019-03-05T06:09:29.319Z,7.4
2019-03-05T06:10:09.878Z,7.4
2019-03-05T06:10:52.675Z,7.42
2019-03-05T06:11:31.003Z,7.39
2019-03-05T06:12:11.582Z,7.36
2019-03-05T06:12:52.119Z,7.48
2019-03-05T06:13:32.693Z,7.36
2019-03-05T06:14:13.290Z,7.39
2019-03-05T06:14:53.861Z,7.42
2019-03-05T06:15:34.475Z,7.43
2019-03-05T06:16:15.086Z,7.43
2019-03-05T06:16:55.663Z,7.48
2019-03-05T06:17:36.232Z,7.4
2019-03-05T06:18:16.799Z,7.45
2019-03-05T06:18:57.347Z,7.36
2019-03-05T06:19:37.940Z,7.42
2019-03-05T06:20:18.502Z,7.42
2019-03-05T06:20:59.060Z,7.43
2019-03-05T06:21:39.677Z,7.4
2019-03-05T06:22:20.260Z,7.35
2019-03-05T06:23:00.837Z,7.42
2019-03-05T06:23:41.533Z,7.36
2019-03-05T06:24:22.130Z,7.47
2019-03-05T06:25:02.728Z,7.38
2019-03-05T06:25:43.354Z,7.42
2019-03-05T06:26:23.953Z,7.4
2019-03-05T06:27:04.658Z,7.4
2019-03-05T06:27:45.226Z,7.45
2019-03-05T06:28:25.781Z,7.43
2019-03-05T06:29:06.384Z,7.43
2019-03-05T06:29:46.973Z,7.5
2019-03-05T06:30:27.557Z,7.45
2019-03-05T06:31:08.136Z,7.5
2019-03-05T06:31:48.715Z,7.45
2019-03-05T06:32:29.273Z,7.54
2019-03-05T06:33:09.896Z,7.51
2019-03-05T06:33:50.458Z,7.56
2019-03-05T06:34:31.038Z,7.57
2019-03-05T06:35:11.604Z,7.5
2019-03-05T06:35:52.155Z,7.53
2019-03-05T06:36:32.755Z,7.63
2019-03-05T06:37:13.325Z,7.57
2019-03-05T06:37:53.936Z,7.6
2019-03-05T06:38:34.506Z,7.58
2019-03-05T06:39:15.125Z,7.6
2019-03-05T06:39:55.705Z,7.56
2019-03-05T06:40:36.318Z,7.61
2019-03-05T06:41:16.897Z,7.56
2019-03-05T06:41:57.471Z,7.54
2019-03-05T06:42:38.048Z,7.54
2019-03-05T06:43:18.685Z,7.54
2019-03-05T06:43:59.274Z,7.63
2019-03-05T06:44:39.860Z,7.51
2019-03-05T06:45:20.412Z,7.66
2019-03-05T06:46:01.013Z,7.51
2019-03-05T06:46:41.609Z,7.56
2019-03-05T06:47:22.171Z,7.5
2019-03-05T06:48:02.759Z,7.51
2019-03-05T06:48:43.338Z,7.6
2019-03-05T06:49:23.869Z,7.53
2019-03-05T06:50:04.474Z,7.66
2019-03-05T06:50:45.051Z,7.63
2019-03-05T06:51:25.618Z,7.58
2019-03-05T06:52:06.172Z,7.6
2019-03-05T06:52:46.748Z,7.56
2019-03-05T06:53:27.411Z,7.58
2019-03-05T06:54:08.006Z,7.67
2019-03-05T06:54:48.567Z,7.57
2019-03-05T06:55:29.152Z,7.63
2019-03-05T06:56:09.815Z,7.58
2019-03-05T06:56:50.399Z,7.6
2019-03-05T06:57:30.965Z,7.54
2019-03-05T06:58:11.932Z,7.58
2019-03-05T06:58:52.189Z,7.63
2019-03-05T06:59:32.779Z,7.61
2019-03-05T07:00:13.326Z,7.58
2019-03-05T07:00:53.927Z,7.57
2019-03-05T07:01:34.480Z,7.61
2019-03-05T07:02:15.072Z,7.57
2019-03-05T07:02:55.654Z,7.6
2019-03-05T07:03:36.253Z,7.66
2019-03-05T07:04:16.822Z,7.6
2019-03-05T07:04:57.872Z,7.63
2019-03-05T07:05:38.402Z,7.58
2019-03-05T07:06:19.000Z,7.66
2019-03-05T07:06:59.593Z,7.63
2019-03-05T07:07:40.158Z,7.7
2019-03-05T07:08:20.712Z,7.67
2019-03-05T07:09:01.301Z,7.7
2019-03-05T07:09:41.921Z,7.76
2019-03-05T07:10:22.493Z,7.75
2019-03-05T07:11:03.107Z,7.76
2019-03-05T07:11:43.643Z,7.76
2019-03-05T07:12:24.210Z,7.7
2019-03-05T07:13:04.811Z,7.8
2019-03-05T07:13:45.399Z,7.91
2019-03-05T07:14:25.995Z,7.83
2019-03-05T07:15:06.561Z,7.83
2019-03-05T07:15:47.135Z,7.82
2019-03-05T07:16:27.782Z,7.77
2019-03-05T07:17:08.364Z,7.76
2019-03-05T07:17:48.922Z,7.91
2019-03-05T07:18:29.499Z,7.87
2019-03-05T07:19:10.075Z,7.77
2019-03-05T07:19:57.819Z,7.83
2019-03-05T07:20:31.189Z,7.93
2019-03-05T07:21:11.788Z,7.85
2019-03-05T07:21:52.378Z,7.88
2019-03-05T07:22:33.002Z,7.91
2019-03-05T07:23:13.554Z,7.85
2019-03-05T07:23:54.169Z,7.9
2019-03-05T07:24:34.720Z,7.9
2019-03-05T07:25:15.342Z,7.94
2019-03-05T07:25:56.331Z,7.91
2019-03-05T07:26:36.899Z,7.91
2019-03-05T07:27:17.461Z,7.98
2019-03-05T07:27:58.025Z,8
2019-03-05T07:28:38.608Z,8.01
2019-03-05T07:29:19.183Z,8.13
2019-03-05T07:29:59.755Z,8.16
2019-03-05T07:30:40.310Z,8.15
2019-03-05T07:31:20.899Z,8.13
2019-03-05T07:32:01.439Z,8.2
2019-03-05T07:32:42.057Z,8.15
2019-03-05T07:33:22.610Z,8.15
2019-03-05T07:34:03.203Z,8.19
2019-03-05T07:34:43.782Z,8.2
2019-03-05T07:35:24.353Z,8.19
2019-03-05T07:36:04.916Z,8.19
2019-03-05T07:36:45.510Z,8.23
2019-03-05T07:37:26.088Z,8.26
2019-03-05T07:38:06.660Z,8.27
2019-03-05T07:38:47.224Z,8.33
2019-03-05T07:39:27.915Z,8.38
2019-03-05T07:40:08.517Z,8.45
2019-03-05T07:40:49.223Z,8.46
2019-03-05T07:41:29.944Z,8.46
2019-03-05T07:42:10.841Z,8.49
2019-03-05T07:42:51.311Z,8.49
2019-03-05T07:43:36.338Z,8.46
2019-03-05T07:44:12.463Z,8.49
2019-03-05T07:44:53.055Z,8.37
2019-03-05T07:45:33.606Z,8.46
2019-03-05T07:46:14.167Z,8.45
2019-03-05T07:46:54.861Z,8.51
2019-03-05T07:47:35.420Z,8.44
2019-03-05T07:48:16.011Z,8.53
2019-03-05T07:48:56.570Z,8.61
2019-03-05T07:49:43.498Z,8.74
2019-03-05T07:50:17.725Z,8.81
2019-03-05T07:50:58.404Z,8.91
2019-03-05T07:51:39.067Z,8.95
2019-03-05T07:52:19.642Z,9
2019-03-05T07:53:00.227Z,8.97
2019-03-05T07:53:40.790Z,8.89
2019-03-05T07:54:21.334Z,8.92
2019-03-05T07:55:12.885Z,8.95
2019-03-05T07:55:42.602Z,8.95
2019-03-05T07:56:23.091Z,8.94
2019-03-05T07:57:03.655Z,8.91
2019-03-05T07:57:44.205Z,8.88
2019-03-05T07:58:24.803Z,8.97
2019-03-05T07:59:05.375Z,8.97
2019-03-05T07:59:45.955Z,8.95
2019-03-05T08:00:26.522Z,8.97
2019-03-05T08:01:07.114Z,8.87
2019-03-05T08:01:51.207Z,8.85
2019-03-05T08:02:31.992Z,8.78
2019-03-05T08:03:12.631Z,8.87
2019-03-05T08:03:53.209Z,8.95
2019-03-05T08:04:33.765Z,8.91
2019-03-05T08:05:14.376Z,8.95
2019-03-05T08:05:54.989Z,8.97
2019-03-05T08:06:35.570Z,8.87
2019-03-05T08:07:16.136Z,8.89
2019-03-05T08:07:56.712Z,8.91
2019-03-05T08:08:37.318Z,8.85
2019-03-05T08:09:17.852Z,8.88
2019-03-05T08:09:58.434Z,8.88
2019-03-05T08:10:39.102Z,8.81
2019-03-05T08:11:19.706Z,8.79
2019-03-05T08:12:00.381Z,8.78
2019-03-05T08:12:41.007Z,8.82
2019-03-05T08:13:21.578Z,8.79
2019-03-05T08:14:02.204Z,8.74
2019-03-05T08:14:42.937Z,8.74
2019-03-05T08:15:23.515Z,8.73
2019-03-05T08:16:04.084Z,8.78
2019-03-05T08:16:44.627Z,8.84
2019-03-05T08:17:25.174Z,8.84
2019-03-05T08:18:05.737Z,8.85
2019-03-05T08:18:46.371Z,8.82
2019-03-05T08:19:26.932Z,8.82
2019-03-05T08:20:07.511Z,8.81
2019-03-05T08:20:48.127Z,8.76
2019-03-05T08:21:28.738Z,8.76
2019-03-05T08:22:09.362Z,8.74
2019-03-05T08:22:49.931Z,8.69
2019-03-05T08:23:30.532Z,8.66
2019-03-05T08:24:11.495Z,8.66
2019-03-05T08:24:52.069Z,8.64
2019-03-05T08:25:32.691Z,8.67
2019-03-05T08:26:13.261Z,8.66
2019-03-05T08:26:53.895Z,8.6
2019-03-05T08:27:34.455Z,8.61
2019-03-05T08:28:15.024Z,8.6
2019-03-05T08:28:55.586Z,8.64
2019-03-05T08:29:36.157Z,8.6
2019-03-05T08:30:16.715Z,8.52
2019-03-05T08:30:57.292Z,8.45
2019-03-05T08:31:37.843Z,8.46
2019-03-05T08:32:18.416Z,8.49
2019-03-05T08:32:58.977Z,8.51
2019-03-05T08:33:39.535Z,8.53
2019-03-05T08:34:20.099Z,8.52
2019-03-05T08:35:00.785Z,8.53
2019-03-05T08:35:41.368Z,8.53
2019-03-05T08:36:21.936Z,8.58
2019-03-05T08:37:02.481Z,8.56
2019-03-05T08:37:43.043Z,8.58
2019-03-05T08:38:23.608Z,8.53
2019-03-05T08:39:04.175Z,8.51
2019-03-05T08:39:44.751Z,8.41
2019-03-05T08:40:25.331Z,8.52
2019-03-05T08:41:05.904Z,8.51
2019-03-05T08:41:46.502Z,8.42
2019-03-05T08:42:27.069Z,8.45
2019-03-05T08:43:07.652Z,8.44
2019-03-05T08:43:48.303Z,8.42
2019-03-05T08:44:28.941Z,8.38
2019-03-05T08:45:09.512Z,8.58
2019-03-05T08:45:50.073Z,8.51
2019-03-05T08:46:30.725Z,8.53
2019-03-05T08:47:11.354Z,8.61
2019-03-05T08:47:51.914Z,8.88
2019-03-05T08:48:32.468Z,8.94
2019-03-05T08:49:13.024Z,9.02
2019-03-05T08:49:53.631Z,9.14
2019-03-05T08:50:34.217Z,9.25
2019-03-05T08:51:14.836Z,9.39
2019-03-05T08:51:55.467Z,9.44
2019-03-05T08:52:36.036Z,9.59
2019-03-05T08:53:16.622Z,9.68
2019-03-05T08:53:57.216Z,9.74
2019-03-05T08:54:37.902Z,9.84
2019-03-05T08:55:19.032Z,10.04
2019-03-05T08:55:59.577Z,10.09
2019-03-05T08:56:40.157Z,10.25
2019-03-05T08:57:20.726Z,10.26
2019-03-05T08:58:01.383Z,10.25
2019-03-05T08:58:41.944Z,10.28
2019-03-05T08:59:22.501Z,10.34
2019-03-05T09:00:03.095Z,10.31
2019-03-05T09:00:43.701Z,10.25
2019-03-05T09:01:24.531Z,10.2
2019-03-05T09:02:05.061Z,10.2